createdAt,value
2022-08-05T00:01:28.404Z,25.10
2022-08-05T00:06:29.499Z,25.00
2022-08-05T00:11:30.673Z,24.90
2022-08-05T00:16:36.563Z,24.80
2022-08-05T00:21:39.425Z,24.70
2022-08-05T00:26:34.885Z,24.60
2022-08-05T00:31:53.108Z,24.60
2022-08-05T00:37:12.622Z,24.50
2022-08-05T00:41:55.345Z,24.40
2022-08-05T00:46:47.727Z,24.40
2022-08-05T00:51:50.728Z,24.30
2022-08-05T00:56:47.057Z,24.20
2022-08-05T01:01:48.573Z,24.10
2022-08-05T01:06:41.142Z,24.10
2022-08-05T01:11:37.961Z,24.10
2022-08-05T01:16:55.879Z,24.00
2022-08-05T01:22:18.802Z,24.00
2022-08-05T01:27:55.266Z,23.90
2022-08-05T01:32:50.920Z,23.80
2022-08-05T01:37:55.240Z,23.80
2022-08-05T01:42:51.185Z,23.70
2022-08-05T01:47:46.540Z,23.60
2022-08-05T01:52:43.266Z,23.50
2022-08-05T01:58:29.133Z,23.50
2022-08-05T02:02:57.734Z,23.40
2022-08-05T02:07:57.871Z,23.30
2022-08-05T02:12:58.337Z,23.20
2022-08-05T02:18:33.341Z,23.20
2022-08-05T02:23:33.773Z,23.10
2022-08-05T02:28:34.079Z,23.20
2022-08-05T02:33:35.895Z,23.10
2022-08-05T02:38:34.998Z,23.00
2022-08-05T02:43:28.598Z,22.90
2022-08-05T02:48:29.516Z,22.90
2022-08-05T02:53:24.166Z,22.90
2022-08-05T02:58:18.258Z,22.80
2022-08-05T03:03:23.544Z,22.70
2022-08-05T03:08:17.096Z,22.70
2022-08-05T03:13:21.664Z,22.70
2022-08-05T03:18:24.611Z,22.60
2022-08-05T03:23:24.140Z,22.50
2022-08-05T03:28:18.889Z,22.50
2022-08-05T03:33:12.292Z,22.50
2022-08-05T03:38:04.802Z,22.50
2022-08-05T03:42:57.074Z,22.50
2022-08-05T03:47:51.382Z,22.60
2022-08-05T03:55:52.579Z,22.60
2022-08-05T03:58:32.552Z,22.80
2022-08-05T04:03:28.324Z,23.00
2022-08-05T04:08:30.414Z,23.00
2022-08-05T04:13:49.989Z,23.10
2022-08-05T04:18:41.788Z,23.30
2022-08-05T04:24:04.884Z,23.40
2022-08-05T04:28:51.372Z,23.60
2022-08-05T04:34:17.429Z,23.90
2022-08-05T04:38:57.712Z,24.60
2022-08-05T04:43:52.859Z,28.10
2022-08-05T04:48:45.202Z,31.20
2022-08-05T04:53:39.000Z,33.30
2022-08-05T04:58:31.248Z,34.70
2022-08-05T05:03:23.305Z,35.90
2022-08-05T05:08:26.703Z,37.30
2022-08-05T05:13:22.933Z,38.50
2022-08-05T05:18:28.409Z,39.20
2022-08-05T05:23:25.563Z,39.70
2022-08-05T05:28:19.088Z,38.70
2022-08-05T05:33:16.508Z,40.70
2022-08-05T05:38:13.237Z,42.00
2022-08-05T05:43:06.024Z,43.00
2022-08-05T05:48:05.333Z,43.90
2022-08-05T05:52:59.274Z,44.20
2022-08-05T05:57:53.452Z,44.70
2022-08-05T06:07:57.941Z,46.30
2022-08-05T06:12:54.345Z,45.70
2022-08-05T06:17:52.800Z,46.80
2022-08-05T06:22:47.009Z,47.50
2022-08-05T06:28:12.174Z,47.90
2022-08-05T06:32:53.181Z,45.40
2022-08-05T06:37:58.097Z,46.40
2022-08-05T06:42:54.945Z,48.30
2022-08-05T06:52:44.249Z,48.00
2022-08-05T06:58:03.003Z,49.40
2022-08-05T07:03:03.296Z,48.60
2022-08-05T07:07:59.707Z,47.40
2022-08-05T07:13:10.669Z,48.70
2022-08-05T07:18:09.170Z,49.80
2022-08-05T07:23:07.461Z,50.10
2022-08-05T07:28:09.668Z,51.10
2022-08-05T07:33:09.462Z,50.80
2022-08-05T07:38:02.560Z,50.80
2022-08-05T07:42:54.613Z,51.10
2022-08-05T07:47:47.227Z,50.80
2022-08-05T07:52:40.836Z,51.60
2022-08-05T07:57:51.248Z,51.20
2022-08-05T08:03:15.124Z,51.50
2022-08-05T08:07:59.018Z,50.60
2022-08-05T08:12:52.644Z,50.30
2022-08-05T08:17:50.780Z,49.70
2022-08-05T08:22:51.747Z,49.20
2022-08-05T08:27:47.890Z,48.20
2022-08-05T08:32:43.539Z,47.80
2022-08-05T08:37:36.663Z,48.20
2022-08-05T08:42:33.792Z,49.40
2022-08-05T08:48:05.879Z,49.90
2022-08-05T08:52:47.382Z,49.80
2022-08-05T08:57:57.803Z,48.70
2022-08-05T09:02:51.153Z,48.80
2022-08-05T09:07:56.725Z,50.10
2022-08-05T09:12:51.052Z,49.70
2022-08-05T09:17:49.576Z,50.50
2022-08-05T09:23:05.225Z,51.20
2022-08-05T09:28:06.550Z,51.00
2022-08-05T09:33:02.406Z,50.70
2022-08-05T09:38:17.471Z,49.20
2022-08-05T09:43:40.724Z,49.30
2022-08-05T09:48:34.907Z,50.60
2022-08-05T09:53:53.824Z,50.50
2022-08-05T09:58:42.374Z,51.00
2022-08-05T10:03:56.951Z,51.50
2022-08-05T10:08:54.033Z,50.80
2022-08-05T10:13:49.202Z,50.70
2022-08-05T10:18:41.704Z,51.80
2022-08-05T10:23:59.529Z,52.00
2022-08-05T10:28:49.688Z,50.80
2022-08-05T10:33:43.328Z,51.80
2022-08-05T10:38:46.884Z,51.50
2022-08-05T10:43:54.655Z,51.20
2022-08-05T10:48:56.899Z,49.90
2022-08-05T10:53:51.069Z,50.00
2022-08-05T10:58:50.837Z,50.10
2022-08-05T11:04:06.432Z,50.10
2022-08-05T11:09:31.930Z,48.80
2022-08-05T11:15:01.183Z,48.70
2022-08-05T11:20:17.565Z,48.40
2022-08-05T11:26:05.627Z,48.60
2022-08-05T11:31:06.081Z,47.90
2022-08-05T11:36:07.449Z,48.30
2022-08-05T11:41:34.246Z,47.70
2022-08-05T11:46:32.248Z,46.00
2022-08-05T11:51:44.100Z,43.30
2022-08-05T11:56:50.053Z,41.50
2022-08-05T12:02:02.578Z,40.50
2022-08-05T12:06:59.390Z,40.30
2022-08-05T12:11:51.748Z,40.60
2022-08-05T12:16:47.503Z,40.40
2022-08-05T12:21:48.803Z,40.10
2022-08-05T12:26:52.804Z,39.50
2022-08-05T12:31:53.471Z,39.10
2022-08-05T12:36:48.020Z,39.20
2022-08-05T12:41:43.995Z,38.90
2022-08-05T12:46:39.191Z,38.20
2022-08-05T12:52:13.619Z,38.40
2022-08-05T12:56:51.074Z,39.20
2022-08-05T13:02:03.203Z,39.40
2022-08-05T13:07:00.274Z,38.80
2022-08-05T13:12:06.587Z,38.20
2022-08-05T13:17:31.872Z,37.90
2022-08-05T13:22:36.182Z,37.70
2022-08-05T13:27:37.718Z,37.60
2022-08-05T13:32:34.026Z,37.60
2022-08-05T13:37:34.839Z,38.00
2022-08-05T13:42:27.405Z,38.30
2022-08-05T13:47:34.737Z,37.90
2022-08-05T13:52:29.888Z,37.50
2022-08-05T13:57:23.287Z,37.20
2022-08-05T14:02:20.044Z,37.00
2022-08-05T14:07:57.041Z,37.20
2022-08-05T14:12:32.492Z,37.30
2022-08-05T14:17:26.669Z,37.70
2022-08-05T14:22:21.737Z,37.70
2022-08-05T14:27:18.488Z,37.50
2022-08-05T14:32:15.892Z,37.40
2022-08-05T14:37:20.016Z,37.00
2022-08-05T14:42:20.868Z,36.40
2022-08-05T14:47:17.590Z,35.90
2022-08-05T14:52:51.819Z,35.70
2022-08-05T14:57:54.870Z,35.50
2022-08-05T15:02:48.824Z,35.30
2022-08-05T15:08:08.777Z,35.30
2022-08-05T15:13:01.012Z,35.50
2022-08-05T15:17:56.023Z,35.20
2022-08-05T15:22:54.045Z,35.20
2022-08-05T15:27:51.872Z,35.20
2022-08-05T15:32:45.132Z,35.10
2022-08-05T15:38:32.667Z,34.80
2022-08-05T15:42:55.103Z,34.70
2022-08-05T15:47:50.601Z,34.60
2022-08-05T15:52:53.029Z,34.60
2022-08-05T15:57:48.800Z,34.60
2022-08-05T16:02:41.259Z,34.40
2022-08-05T16:07:35.338Z,34.00
2022-08-05T16:12:27.614Z,33.60
2022-08-05T16:17:19.733Z,33.50
2022-08-05T16:22:13.423Z,33.60
2022-08-05T16:27:07.795Z,33.60
2022-08-05T16:32:00.068Z,33.60
2022-08-05T16:36:52.803Z,33.60
2022-08-05T16:42:14.199Z,33.40
2022-08-05T16:46:58.063Z,33.40
2022-08-05T16:51:54.992Z,33.40
2022-08-05T16:56:52.159Z,33.20
2022-08-05T17:01:54.453Z,33.00
2022-08-05T17:06:53.330Z,32.90
2022-08-05T17:11:48.373Z,32.70
2022-08-05T17:16:41.479Z,32.50
2022-08-05T17:21:36.145Z,32.40
2022-08-05T17:26:28.959Z,32.20
2022-08-05T17:31:24.681Z,32.00
2022-08-05T17:36:40.647Z,31.80
2022-08-05T17:42:19.056Z,31.70
2022-08-05T17:46:45.034Z,31.50
2022-08-05T17:51:40.263Z,31.40
2022-08-05T17:56:32.738Z,31.10
2022-08-05T18:01:25.112Z,30.60
2022-08-05T18:06:17.359Z,30.10
2022-08-05T18:11:09.399Z,29.60
2022-08-05T18:16:15.276Z,29.20
2022-08-05T18:21:13.040Z,28.80
2022-08-05T18:26:11.589Z,28.70
2022-08-05T18:31:06.495Z,28.50
2022-08-05T18:36:06.931Z,28.00
2022-08-05T18:41:58.535Z,27.80
2022-08-05T18:46:20.969Z,27.60
2022-08-05T18:52:04.811Z,27.10
2022-08-05T18:56:51.186Z,27.00
2022-08-05T19:01:48.134Z,26.80
2022-08-05T19:06:49.421Z,26.50
2022-08-05T19:11:59.582Z,26.50
2022-08-05T19:16:52.613Z,26.50
2022-08-05T19:21:44.750Z,26.30
2022-08-05T19:26:54.382Z,26.20
2022-08-05T19:31:51.055Z,25.90
2022-08-05T19:36:43.537Z,25.60
2022-08-05T19:42:05.733Z,25.60
2022-08-05T19:46:52.349Z,25.60
2022-08-05T19:52:19.655Z,25.40
2022-08-05T19:57:06.626Z,25.20
2022-08-05T20:02:02.046Z,25.20
2022-08-05T20:06:55.754Z,25.10
2022-08-05T20:11:48.456Z,25.10
2022-08-05T20:16:44.328Z,25.10
2022-08-05T20:21:40.685Z,24.90
2022-08-05T20:26:36.757Z,24.90
2022-08-05T20:31:42.051Z,24.70
2022-08-05T20:36:43.362Z,24.60
2022-08-05T20:41:43.314Z,24.40
2022-08-05T20:46:35.815Z,24.30
2022-08-05T20:51:29.773Z,24.30
2022-08-05T20:56:28.869Z,24.30
2022-08-05T21:01:22.225Z,24.10
2022-08-05T21:06:29.773Z,24.20
2022-08-05T21:12:10.961Z,24.00
2022-08-05T21:16:34.053Z,23.90
2022-08-05T21:21:27.515Z,23.90
2022-08-05T21:26:36.655Z,23.90
2022-08-05T21:31:41.039Z,23.80
2022-08-05T21:36:37.018Z,23.60
2022-08-05T21:41:33.982Z,23.50
2022-08-05T21:46:27.388Z,23.40
2022-08-05T21:52:15.510Z,23.30
2022-08-05T21:56:32.945Z,23.20
2022-08-05T22:01:26.776Z,23.00
2022-08-05T22:06:22.995Z,22.90
2022-08-05T22:11:35.236Z,22.80
2022-08-05T22:16:41.596Z,22.60
2022-08-05T22:21:40.141Z,22.60
2022-08-05T22:26:53.976Z,22.70
2022-08-05T22:31:55.301Z,22.50
2022-08-05T22:36:54.888Z,22.60
2022-08-05T22:42:10.115Z,22.60
2022-08-05T22:46:59.788Z,22.60
2022-08-05T22:52:07.115Z,22.50
2022-08-05T22:57:00.073Z,22.30
2022-08-05T23:02:06.008Z,22.10
2022-08-05T23:06:59.578Z,21.90
2022-08-05T23:11:51.991Z,21.60
2022-08-05T23:17:03.918Z,21.40
2022-08-05T23:22:00.919Z,21.30
2022-08-05T23:26:54.624Z,21.00
2022-08-05T23:31:47.169Z,20.70
2022-08-05T23:36:44.825Z,20.50
2022-08-05T23:41:41.033Z,20.40
2022-08-05T23:46:40.588Z,20.40
2022-08-05T23:51:55.130Z,20.50
2022-08-05T23:56:47.582Z,20.40
